sensor_id;sensor_type;location;lat;lon;timestamp;temperature;humidity
6462;DHT22;3264;42.862;25.098;2023-04-06T00:01:40;1.40;99.90
6462;DHT22;3264;42.862;25.098;2023-04-06T00:04:09;1.40;99.90
6462;DHT22;3264;42.862;25.098;2023-04-06T00:06:38;1.30;99.90
6462;DHT22;3264;42.862;25.098;2023-04-06T00:09:06;1.30;99.90
6462;DHT22;3264;42.862;25.098;2023-04-06T00:11:35;1.10;99.90
6462;DHT22;3264;42.862;25.098;2023-04-06T00:14:04;1.00;99.90
6462;DHT22;3264;42.862;25.098;2023-04-06T00:16:34;0.90;99.90
6462;DHT22;3264;42.862;25.098;2023-04-06T00:19:02;0.90;99.90
6462;DHT22;3264;42.862;25.098;2023-04-06T00:21:30;0.90;99.90
6462;DHT22;3264;42.862;25.098;2023-04-06T00:24:00;1.00;99.90
6462;DHT22;3264;42.862;25.098;2023-04-06T00:26:31;1.00;99.90
6462;DHT22;3264;42.862;25.098;2023-04-06T00:29:01;1.00;99.90
6462;DHT22;3264;42.862;25.098;2023-04-06T00:31:30;1.10;99.90
6462;DHT22;3264;42.862;25.098;2023-04-06T00:33:59;1.00;99.90
6462;DHT22;3264;42.862;25.098;2023-04-06T00:36:27;0.90;99.90
6462;DHT22;3264;42.862;25.098;2023-04-06T00:38:57;0.80;99.90
6462;DHT22;3264;42.862;25.098;2023-04-06T00:41:27;0.80;99.90
6462;DHT22;3264;42.862;25.098;2023-04-06T00:43:56;0.80;99.90
6462;DHT22;3264;42.862;25.098;2023-04-06T00:46:26;0.90;99.90
6462;DHT22;3264;42.862;25.098;2023-04-06T00:48:56;0.90;99.90
6462;DHT22;3264;42.862;25.098;2023-04-06T00:51:24;0.90;99.90
6462;DHT22;3264;42.862;25.098;2023-04-06T00:53:53;0.80;99.90
6462;DHT22;3264;42.862;25.098;2023-04-06T00:56:21;0.70;99.90
6462;DHT22;3264;42.862;25.098;2023-04-06T00:58:51;0.70;99.90
6462;DHT22;3264;42.862;25.098;2023-04-06T01:01:19;0.60;99.90
6462;DHT22;3264;42.862;25.098;2023-04-06T01:03:48;0.70;99.90
6462;DHT22;3264;42.862;25.098;2023-04-06T01:06:18;0.80;99.90
6462;DHT22;3264;42.862;25.098;2023-04-06T01:08:47;0.80;99.90
6462;DHT22;3264;42.862;25.098;2023-04-06T01:11:14;0.80;99.90
6462;DHT22;3264;42.862;25.098;2023-04-06T01:13:43;0.80;99.90
6462;DHT22;3264;42.862;25.098;2023-04-06T01:16:11;0.70;99.90
6462;DHT22;3264;42.862;25.098;2023-04-06T01:18:39;0.60;99.90
6462;DHT22;3264;42.862;25.098;2023-04-06T01:21:11;0.80;99.90
6462;DHT22;3264;42.862;25.098;2023-04-06T01:23:45;0.80;99.90
6462;DHT22;3264;42.862;25.098;2023-04-06T01:26:14;0.90;99.90
6462;DHT22;3264;42.862;25.098;2023-04-06T01:28:44;0.90;99.90
6462;DHT22;3264;42.862;25.098;2023-04-06T01:31:12;1.00;99.90
6462;DHT22;3264;42.862;25.098;2023-04-06T01:33:42;1.00;99.90
6462;DHT22;3264;42.862;25.098;2023-04-06T01:36:09;0.90;99.90
6462;DHT22;3264;42.862;25.098;2023-04-06T01:38:38;1.00;99.90
6462;DHT22;3264;42.862;25.098;2023-04-06T01:41:10;0.90;99.90
6462;DHT22;3264;42.862;25.098;2023-04-06T01:43:39;0.80;99.90
6462;DHT22;3264;42.862;25.098;2023-04-06T01:46:08;0.80;99.90
6462;DHT22;3264;42.862;25.098;2023-04-06T01:48:37;0.80;99.90
6462;DHT22;3264;42.862;25.098;2023-04-06T01:51:05;0.80;99.90
6462;DHT22;3264;42.862;25.098;2023-04-06T01:53:33;0.80;99.90
6462;DHT22;3264;42.862;25.098;2023-04-06T01:56:02;0.70;99.90
6462;DHT22;3264;42.862;25.098;2023-04-06T01:58:33;0.70;99.90
6462;DHT22;3264;42.862;25.098;2023-04-06T02:01:02;0.80;99.90
6462;DHT22;3264;42.862;25.098;2023-04-06T02:03:30;0.70;99.90
6462;DHT22;3264;42.862;25.098;2023-04-06T02:05:59;0.70;99.90
6462;DHT22;3264;42.862;25.098;2023-04-06T02:08:27;0.70;99.90
6462;DHT22;3264;42.862;25.098;2023-04-06T02:10:56;0.70;99.90
6462;DHT22;3264;42.862;25.098;2023-04-06T02:13:25;0.70;99.90
6462;DHT22;3264;42.862;25.098;2023-04-06T02:15:56;0.60;99.90
6462;DHT22;3264;42.862;25.098;2023-04-06T02:18:26;0.60;99.90
6462;DHT22;3264;42.862;25.098;2023-04-06T02:20:55;0.60;99.90
6462;DHT22;3264;42.862;25.098;2023-04-06T02:23:24;0.60;99.90
6462;DHT22;3264;42.862;25.098;2023-04-06T02:25:53;0.60;99.90
6462;DHT22;3264;42.862;25.098;2023-04-06T02:28:22;0.60;99.90
6462;DHT22;3264;42.862;25.098;2023-04-06T02:30:52;0.60;99.90
6462;DHT22;3264;42.862;25.098;2023-04-06T02:33:22;0.70;99.90
6462;DHT22;3264;42.862;25.098;2023-04-06T02:35:50;0.70;99.90
6462;DHT22;3264;42.862;25.098;2023-04-06T02:38:19;0.70;99.90
6462;DHT22;3264;42.862;25.098;2023-04-06T02:40:46;0.70;99.90
6462;DHT22;3264;42.862;25.098;2023-04-06T02:43:16;0.80;99.90
6462;DHT22;3264;42.862;25.098;2023-04-06T02:45:43;0.70;99.90
6462;DHT22;3264;42.862;25.098;2023-04-06T02:48:13;0.70;99.90
6462;DHT22;3264;42.862;25.098;2023-04-06T02:50:42;0.60;99.90
6462;DHT22;3264;42.862;25.098;2023-04-06T02:53:11;0.70;99.90
6462;DHT22;3264;42.862;25.098;2023-04-06T02:55:39;0.80;99.90
6462;DHT22;3264;42.862;25.098;2023-04-06T02:58:08;0.80;99.90
6462;DHT22;3264;42.862;25.098;2023-04-06T03:00:37;0.80;99.90
6462;DHT22;3264;42.862;25.098;2023-04-06T03:03:06;0.70;99.90
6462;DHT22;3264;42.862;25.098;2023-04-06T03:05:34;0.80;99.90
6462;DHT22;3264;42.862;25.098;2023-04-06T03:08:05;0.80;99.90
6462;DHT22;3264;42.862;25.098;2023-04-06T03:10:33;0.80;99.90
6462;DHT22;3264;42.862;25.098;2023-04-06T03:13:02;0.90;99.90
6462;DHT22;3264;42.862;25.098;2023-04-06T03:15:31;0.90;99.90
6462;DHT22;3264;42.862;25.098;2023-04-06T03:18:00;1.00;99.90
6462;DHT22;3264;42.862;25.098;2023-04-06T03:20:29;1.00;99.90
6462;DHT22;3264;42.862;25.098;2023-04-06T03:22:59;1.10;99.90
6462;DHT22;3264;42.862;25.098;2023-04-06T03:25:28;1.10;99.90
6462;DHT22;3264;42.862;25.098;2023-04-06T03:27:56;1.00;99.90
6462;DHT22;3264;42.862;25.098;2023-04-06T03:30:25;0.90;99.90
6462;DHT22;3264;42.862;25.098;2023-04-06T03:32:55;1.00;99.90
6462;DHT22;3264;42.862;25.098;2023-04-06T03:35:22;1.00;99.90
6462;DHT22;3264;42.862;25.098;2023-04-06T03:37:51;1.00;99.90
6462;DHT22;3264;42.862;25.098;2023-04-06T03:40:19;1.10;99.90
6462;DHT22;3264;42.862;25.098;2023-04-06T03:42:50;1.10;99.90
6462;DHT22;3264;42.862;25.098;2023-04-06T03:45:19;1.20;99.90
6462;DHT22;3264;42.862;25.098;2023-04-06T03:47:47;1.20;99.90
6462;DHT22;3264;42.862;25.098;2023-04-06T03:50:14;1.20;99.90
6462;DHT22;3264;42.862;25.098;2023-04-06T03:52:42;1.30;99.90
6462;DHT22;3264;42.862;25.098;2023-04-06T03:55:10;1.30;99.90
6462;DHT22;3264;42.862;25.098;2023-04-06T03:57:38;1.10;99.90
6462;DHT22;3264;42.862;25.098;2023-04-06T04:00:10;1.20;99.90
6462;DHT22;3264;42.862;25.098;2023-04-06T04:02:39;1.20;99.90
6462;DHT22;3264;42.862;25.098;2023-04-06T04:05:08;1.40;99.90
6462;DHT22;3264;42.862;25.098;2023-04-06T04:07:37;1.40;99.90
6462;DHT22;3264;42.862;25.098;2023-04-06T04:10:07;1.40;99.90
6462;DHT22;3264;42.862;25.098;2023-04-06T04:12:36;1.40;99.90
6462;DHT22;3264;42.862;25.098;2023-04-06T04:15:08;1.50;99.90
6462;DHT22;3264;42.862;25.098;2023-04-06T04:17:38;1.40;99.90
6462;DHT22;3264;42.862;25.098;2023-04-06T04:20:07;1.50;99.90
6462;DHT22;3264;42.862;25.098;2023-04-06T04:22:35;1.40;99.90
6462;DHT22;3264;42.862;25.098;2023-04-06T04:25:05;1.40;99.90
6462;DHT22;3264;42.862;25.098;2023-04-06T04:27:32;1.40;99.90
6462;DHT22;3264;42.862;25.098;2023-04-06T04:30:02;1.40;99.90
6462;DHT22;3264;42.862;25.098;2023-04-06T04:32:32;1.50;99.90
6462;DHT22;3264;42.862;25.098;2023-04-06T04:35:00;1.60;99.90
6462;DHT22;3264;42.862;25.098;2023-04-06T04:37:28;1.70;99.90
6462;DHT22;3264;42.862;25.098;2023-04-06T04:39:57;1.70;99.90
6462;DHT22;3264;42.862;25.098;2023-04-06T04:42:26;1.80;99.90
6462;DHT22;3264;42.862;25.098;2023-04-06T04:44:54;1.70;99.90
6462;DHT22;3264;42.862;25.098;2023-04-06T04:47:22;1.80;99.90
6462;DHT22;3264;42.862;25.098;2023-04-06T04:49:53;1.90;99.90
6462;DHT22;3264;42.862;25.098;2023-04-06T04:52:20;1.90;99.90
6462;DHT22;3264;42.862;25.098;2023-04-06T04:54:48;1.90;99.90
6462;DHT22;3264;42.862;25.098;2023-04-06T04:57:16;1.90;99.90
6462;DHT22;3264;42.862;25.098;2023-04-06T04:59:43;1.90;99.90
6462;DHT22;3264;42.862;25.098;2023-04-06T05:02:13;2.00;99.90
6462;DHT22;3264;42.862;25.098;2023-04-06T05:04:41;1.90;99.90
6462;DHT22;3264;42.862;25.098;2023-04-06T05:07:12;2.00;99.90
6462;DHT22;3264;42.862;25.098;2023-04-06T05:09:42;2.10;99.90
6462;DHT22;3264;42.862;25.098;2023-04-06T05:12:12;2.10;99.90
6462;DHT22;3264;42.862;25.098;2023-04-06T05:14:41;2.20;99.90
6462;DHT22;3264;42.862;25.098;2023-04-06T05:17:09;2.10;99.90
6462;DHT22;3264;42.862;25.098;2023-04-06T05:19:38;2.20;99.90
6462;DHT22;3264;42.862;25.098;2023-04-06T05:22:05;2.20;99.90
6462;DHT22;3264;42.862;25.098;2023-04-06T05:24:36;2.20;99.90
6462;DHT22;3264;42.862;25.098;2023-04-06T05:27:07;2.10;99.90
6462;DHT22;3264;42.862;25.098;2023-04-06T05:29:34;2.20;99.90
6462;DHT22;3264;42.862;25.098;2023-04-06T05:32:04;2.00;99.90
6462;DHT22;3264;42.862;25.098;2023-04-06T05:34:34;2.30;99.90
6462;DHT22;3264;42.862;25.098;2023-04-06T05:37:04;2.40;99.90
6462;DHT22;3264;42.862;25.098;2023-04-06T05:39:36;2.70;99.90
6462;DHT22;3264;42.862;25.098;2023-04-06T05:42:15;2.70;99.90
6462;DHT22;3264;42.862;25.098;2023-04-06T05:44:43;2.70;99.90
6462;DHT22;3264;42.862;25.098;2023-04-06T05:47:13;2.80;99.90
6462;DHT22;3264;42.862;25.098;2023-04-06T05:49:43;2.80;99.90
6462;DHT22;3264;42.862;25.098;2023-04-06T05:52:12;2.90;99.90
6462;DHT22;3264;42.862;25.098;2023-04-06T05:54:44;2.90;99.90
6462;DHT22;3264;42.862;25.098;2023-04-06T05:57:13;3.00;99.90
6462;DHT22;3264;42.862;25.098;2023-04-06T05:59:43;3.00;99.90
6462;DHT22;3264;42.862;25.098;2023-04-06T06:02:12;3.10;99.90
6462;DHT22;3264;42.862;25.098;2023-04-06T06:04:41;3.10;99.90
6462;DHT22;3264;42.862;25.098;2023-04-06T06:07:12;3.30;99.90
6462;DHT22;3264;42.862;25.098;2023-04-06T06:09:44;3.30;99.90
6462;DHT22;3264;42.862;25.098;2023-04-06T06:12:15;3.30;99.90
6462;DHT22;3264;42.862;25.098;2023-04-06T06:14:47;3.30;99.90
6462;DHT22;3264;42.862;25.098;2023-04-06T06:17:17;3.20;99.90
6462;DHT22;3264;42.862;25.098;2023-04-06T06:19:46;3.20;99.90
6462;DHT22;3264;42.862;25.098;2023-04-06T06:22:16;3.30;99.90
6462;DHT22;3264;42.862;25.098;2023-04-06T06:24:46;3.50;99.90
6462;DHT22;3264;42.862;25.098;2023-04-06T06:27:17;3.70;99.90
6462;DHT22;3264;42.862;25.098;2023-04-06T06:29:45;3.70;99.90
6462;DHT22;3264;42.862;25.098;2023-04-06T06:32:14;3.90;99.90
6462;DHT22;3264;42.862;25.098;2023-04-06T06:34:41;4.10;99.90
6462;DHT22;3264;42.862;25.098;2023-04-06T06:37:11;4.00;99.90
6462;DHT22;3264;42.862;25.098;2023-04-06T06:39:38;4.20;99.90
6462;DHT22;3264;42.862;25.098;2023-04-06T06:42:09;4.00;99.90
6462;DHT22;3264;42.862;25.098;2023-04-06T06:44:38;4.10;99.90
6462;DHT22;3264;42.862;25.098;2023-04-06T06:47:07;4.10;99.90
6462;DHT22;3264;42.862;25.098;2023-04-06T06:49:37;4.30;99.90
6462;DHT22;3264;42.862;25.098;2023-04-06T06:52:13;4.30;99.90
6462;DHT22;3264;42.862;25.098;2023-04-06T06:54:43;4.10;99.90
6462;DHT22;3264;42.862;25.098;2023-04-06T06:57:12;4.60;99.90
6462;DHT22;3264;42.862;25.098;2023-04-06T06:59:42;4.80;99.90
6462;DHT22;3264;42.862;25.098;2023-04-06T07:02:10;5.00;99.90
6462;DHT22;3264;42.862;25.098;2023-04-06T07:04:37;5.30;99.90
6462;DHT22;3264;42.862;25.098;2023-04-06T07:07:07;5.10;99.90
6462;DHT22;3264;42.862;25.098;2023-04-06T07:09:35;5.40;99.90
6462;DHT22;3264;42.862;25.098;2023-04-06T07:12:04;5.60;99.90
6462;DHT22;3264;42.862;25.098;2023-04-06T07:14:34;5.50;99.90
6462;DHT22;3264;42.862;25.098;2023-04-06T07:17:03;5.30;98.30
6462;DHT22;3264;42.862;25.098;2023-04-06T07:19:33;5.30;99.70
6462;DHT22;3264;42.862;25.098;2023-04-06T07:22:00;5.90;99.90
6462;DHT22;3264;42.862;25.098;2023-04-06T07:24:30;5.90;99.90
6462;DHT22;3264;42.862;25.098;2023-04-06T07:27:00;6.00;99.90
6462;DHT22;3264;42.862;25.098;2023-04-06T07:29:29;5.90;98.60
6462;DHT22;3264;42.862;25.098;2023-04-06T07:31:58;6.10;98.10
6462;DHT22;3264;42.862;25.098;2023-04-06T07:34:26;6.10;96.40
6462;DHT22;3264;42.862;25.098;2023-04-06T07:36:55;5.70;95.60
6462;DHT22;3264;42.862;25.098;2023-04-06T07:39:24;6.00;96.70
6462;DHT22;3264;42.862;25.098;2023-04-06T07:41:54;6.20;96.50
6462;DHT22;3264;42.862;25.098;2023-04-06T07:44:23;6.20;96.20
6462;DHT22;3264;42.862;25.098;2023-04-06T07:46:51;6.20;94.10
6462;DHT22;3264;42.862;25.098;2023-04-06T07:49:21;5.80;93.40
6462;DHT22;3264;42.862;25.098;2023-04-06T07:51:49;5.90;93.70
6462;DHT22;3264;42.862;25.098;2023-04-06T07:54:17;5.70;93.90
6462;DHT22;3264;42.862;25.098;2023-04-06T07:56:45;5.70;93.60
6462;DHT22;3264;42.862;25.098;2023-04-06T07:59:13;5.60;93.60
6462;DHT22;3264;42.862;25.098;2023-04-06T08:01:40;5.80;94.20
6462;DHT22;3264;42.862;25.098;2023-04-06T08:04:08;5.90;94.20
6462;DHT22;3264;42.862;25.098;2023-04-06T08:06:37;6.00;93.00
6462;DHT22;3264;42.862;25.098;2023-04-06T08:09:06;6.20;93.20
6462;DHT22;3264;42.862;25.098;2023-04-06T08:11:34;6.60;93.70
6462;DHT22;3264;42.862;25.098;2023-04-06T08:14:03;6.80;94.10
6462;DHT22;3264;42.862;25.098;2023-04-06T08:16:32;6.60;91.90
6462;DHT22;3264;42.862;25.098;2023-04-06T08:19:03;6.70;92.50
6462;DHT22;3264;42.862;25.098;2023-04-06T08:21:33;6.80;92.50
6462;DHT22;3264;42.862;25.098;2023-04-06T08:24:03;6.40;92.00
6462;DHT22;3264;42.862;25.098;2023-04-06T08:26:33;6.80;92.40
6462;DHT22;3264;42.862;25.098;2023-04-06T08:29:05;6.60;91.80
6462;DHT22;3264;42.862;25.098;2023-04-06T08:31:33;6.80;92.00
6462;DHT22;3264;42.862;25.098;2023-04-06T08:34:03;6.60;92.60
6462;DHT22;3264;42.862;25.098;2023-04-06T08:36:33;6.80;91.50
6462;DHT22;3264;42.862;25.098;2023-04-06T08:39:02;7.10;91.30
6462;DHT22;3264;42.862;25.098;2023-04-06T08:41:30;7.20;91.20
6462;DHT22;3264;42.862;25.098;2023-04-06T08:44:00;6.90;91.70
6462;DHT22;3264;42.862;25.098;2023-04-06T08:46:30;7.10;92.50
6462;DHT22;3264;42.862;25.098;2023-04-06T08:49:01;6.80;90.80
6462;DHT22;3264;42.862;25.098;2023-04-06T08:51:43;7.40;90.60
6462;DHT22;3264;42.862;25.098;2023-04-06T08:54:13;7.20;90.70
6462;DHT22;3264;42.862;25.098;2023-04-06T08:56:41;7.30;90.00
6462;DHT22;3264;42.862;25.098;2023-04-06T08:59:10;7.20;90.90
6462;DHT22;3264;42.862;25.098;2023-04-06T09:01:40;7.50;91.30
6462;DHT22;3264;42.862;25.098;2023-04-06T09:04:11;7.40;89.80
6462;DHT22;3264;42.862;25.098;2023-04-06T09:06:39;7.60;89.50
6462;DHT22;3264;42.862;25.098;2023-04-06T09:09:07;7.80;86.90
6462;DHT22;3264;42.862;25.098;2023-04-06T09:11:47;8.30;88.70
6462;DHT22;3264;42.862;25.098;2023-04-06T09:14:17;8.50;85.00
6462;DHT22;3264;42.862;25.098;2023-04-06T09:17:00;8.20;82.50
6462;DHT22;3264;42.862;25.098;2023-04-06T09:19:29;8.90;83.80
6462;DHT22;3264;42.862;25.098;2023-04-06T09:22:04;9.80;86.30
6462;DHT22;3264;42.862;25.098;2023-04-06T09:24:44;10.50;79.10
6462;DHT22;3264;42.862;25.098;2023-04-06T09:27:15;10.40;79.00
6462;DHT22;3264;42.862;25.098;2023-04-06T09:29:45;10.60;75.00
6462;DHT22;3264;42.862;25.098;2023-04-06T09:32:13;10.30;72.40
6462;DHT22;3264;42.862;25.098;2023-04-06T09:34:43;9.90;76.00
6462;DHT22;3264;42.862;25.098;2023-04-06T09:37:16;8.20;75.20
6462;DHT22;3264;42.862;25.098;2023-04-06T09:39:45;9.20;77.20
6462;DHT22;3264;42.862;25.098;2023-04-06T09:42:23;10.10;76.70
6462;DHT22;3264;42.862;25.098;2023-04-06T09:44:54;8.90;72.40
6462;DHT22;3264;42.862;25.098;2023-04-06T09:47:23;8.10;74.80
6462;DHT22;3264;42.862;25.098;2023-04-06T09:49:56;8.50;77.10
6462;DHT22;3264;42.862;25.098;2023-04-06T09:52:27;8.60;78.10
6462;DHT22;3264;42.862;25.098;2023-04-06T09:54:59;9.00;78.90
6462;DHT22;3264;42.862;25.098;2023-04-06T09:57:34;10.00;80.70
6462;DHT22;3264;42.862;25.098;2023-04-06T10:00:05;8.80;75.40
6462;DHT22;3264;42.862;25.098;2023-04-06T10:02:41;8.00;74.90
6462;DHT22;3264;42.862;25.098;2023-04-06T10:05:19;8.10;75.30
6462;DHT22;3264;42.862;25.098;2023-04-06T10:07:49;8.60;77.90
6462;DHT22;3264;42.862;25.098;2023-04-06T10:10:18;8.50;76.70
6462;DHT22;3264;42.862;25.098;2023-04-06T10:12:49;9.00;78.90
6462;DHT22;3264;42.862;25.098;2023-04-06T10:15:18;9.00;76.70
6462;DHT22;3264;42.862;25.098;2023-04-06T10:17:47;9.50;78.40
6462;DHT22;3264;42.862;25.098;2023-04-06T10:20:20;9.70;77.50
6462;DHT22;3264;42.862;25.098;2023-04-06T10:22:53;9.50;74.60
6462;DHT22;3264;42.862;25.098;2023-04-06T10:25:29;8.90;72.60
6462;DHT22;3264;42.862;25.098;2023-04-06T10:28:05;8.80;75.00
6462;DHT22;3264;42.862;25.098;2023-04-06T10:30:36;9.10;73.80
6462;DHT22;3264;42.862;25.098;2023-04-06T10:33:15;9.00;72.90
6462;DHT22;3264;42.862;25.098;2023-04-06T10:35:44;9.50;74.70
6462;DHT22;3264;42.862;25.098;2023-04-06T10:38:12;8.70;71.20
6462;DHT22;3264;42.862;25.098;2023-04-06T11:05:59;9.80;75.20
6462;DHT22;3264;42.862;25.098;2023-04-06T11:08:29;9.20;70.40
6462;DHT22;3264;42.862;25.098;2023-04-06T11:11:08;9.80;73.80
6462;DHT22;3264;42.862;25.098;2023-04-06T11:13:40;9.20;68.90
6462;DHT22;3264;42.862;25.098;2023-04-06T11:16:13;8.90;68.80
6462;DHT22;3264;42.862;25.098;2023-04-06T11:18:53;9.20;70.90
6462;DHT22;3264;42.862;25.098;2023-04-06T11:21:33;9.90;74.20
6462;DHT22;3264;42.862;25.098;2023-04-06T11:24:07;9.70;70.20
6462;DHT22;3264;42.862;25.098;2023-04-06T11:26:41;9.80;70.60
6462;DHT22;3264;42.862;25.098;2023-04-06T11:29:12;10.30;73.40
6462;DHT22;3264;42.862;25.098;2023-04-06T11:31:42;10.40;69.50
6462;DHT22;3264;42.862;25.098;2023-04-06T11:34:11;10.50;70.80
6462;DHT22;3264;42.862;25.098;2023-04-06T11:36:46;10.70;72.70
6462;DHT22;3264;42.862;25.098;2023-04-06T11:39:20;10.00;65.70
6462;DHT22;3264;42.862;25.098;2023-04-06T11:41:49;10.00;71.00
6462;DHT22;3264;42.862;25.098;2023-04-06T11:44:30;9.80;71.30
6462;DHT22;3264;42.862;25.098;2023-04-06T11:47:00;9.90;71.20
6462;DHT22;3264;42.862;25.098;2023-04-06T11:49:28;9.70;69.10
6462;DHT22;3264;42.862;25.098;2023-04-06T11:52:00;9.60;69.50
6462;DHT22;3264;42.862;25.098;2023-04-06T11:54:33;9.70;70.40
6462;DHT22;3264;42.862;25.098;2023-04-06T11:57:02;9.70;71.10
6462;DHT22;3264;42.862;25.098;2023-04-06T11:59:32;9.70;72.70
6462;DHT22;3264;42.862;25.098;2023-04-06T12:02:01;10.00;71.00
6462;DHT22;3264;42.862;25.098;2023-04-06T12:04:30;9.90;69.00
6462;DHT22;3264;42.862;25.098;2023-04-06T12:07:00;9.30;65.50
6462;DHT22;3264;42.862;25.098;2023-04-06T12:09:29;9.60;70.70
6462;DHT22;3264;42.862;25.098;2023-04-06T12:11:59;9.90;72.60
6462;DHT22;3264;42.862;25.098;2023-04-06T12:14:27;10.00;70.00
6462;DHT22;3264;42.862;25.098;2023-04-06T12:16:56;9.60;66.00
6462;DHT22;3264;42.862;25.098;2023-04-06T12:19:25;9.40;67.70
6462;DHT22;3264;42.862;25.098;2023-04-06T12:21:54;9.60;71.90
6462;DHT22;3264;42.862;25.098;2023-04-06T12:24:24;9.60;71.50
6462;DHT22;3264;42.862;25.098;2023-04-06T12:26:53;9.70;70.10
6462;DHT22;3264;42.862;25.098;2023-04-06T12:29:21;9.80;72.50
6462;DHT22;3264;42.862;25.098;2023-04-06T12:31:50;9.80;72.90
6462;DHT22;3264;42.862;25.098;2023-04-06T12:34:20;9.80;69.80
6462;DHT22;3264;42.862;25.098;2023-04-06T12:36:49;9.70;71.10
6462;DHT22;3264;42.862;25.098;2023-04-06T12:39:19;9.80;73.40
6462;DHT22;3264;42.862;25.098;2023-04-06T12:41:50;9.80;69.30
6462;DHT22;3264;42.862;25.098;2023-04-06T12:44:18;10.10;69.80
6462;DHT22;3264;42.862;25.098;2023-04-06T12:46:48;9.90;70.50
6462;DHT22;3264;42.862;25.098;2023-04-06T12:49:17;9.90;71.20
6462;DHT22;3264;42.862;25.098;2023-04-06T12:51:46;9.80;70.20
6462;DHT22;3264;42.862;25.098;2023-04-06T12:54:15;9.90;70.50
6462;DHT22;3264;42.862;25.098;2023-04-06T12:56:44;9.90;71.20
6462;DHT22;3264;42.862;25.098;2023-04-06T12:59:15;9.70;70.60
6462;DHT22;3264;42.862;25.098;2023-04-06T13:01:44;9.70;71.70
6462;DHT22;3264;42.862;25.098;2023-04-06T13:04:12;9.40;66.80
6462;DHT22;3264;42.862;25.098;2023-04-06T13:06:41;9.70;71.50
6462;DHT22;3264;42.862;25.098;2023-04-06T13:09:11;9.60;69.20
6462;DHT22;3264;42.862;25.098;2023-04-06T13:11:40;9.50;67.90
6462;DHT22;3264;42.862;25.098;2023-04-06T13:14:09;9.50;71.00
6462;DHT22;3264;42.862;25.098;2023-04-06T13:16:40;9.10;66.70
6462;DHT22;3264;42.862;25.098;2023-04-06T13:19:08;9.10;67.70
6462;DHT22;3264;42.862;25.098;2023-04-06T13:21:38;8.90;67.50
6462;DHT22;3264;42.862;25.098;2023-04-06T13:24:06;9.00;71.80
6462;DHT22;3264;42.862;25.098;2023-04-06T13:26:35;9.10;72.60
6462;DHT22;3264;42.862;25.098;2023-04-06T13:29:02;9.20;69.80
6462;DHT22;3264;42.862;25.098;2023-04-06T13:31:30;9.20;69.30
6462;DHT22;3264;42.862;25.098;2023-04-06T13:34:01;9.50;75.40
6462;DHT22;3264;42.862;25.098;2023-04-06T13:36:31;9.40;73.90
6462;DHT22;3264;42.862;25.098;2023-04-06T13:39:00;9.50;72.30
6462;DHT22;3264;42.862;25.098;2023-04-06T13:41:41;9.80;70.60
6462;DHT22;3264;42.862;25.098;2023-04-06T13:44:10;9.90;68.50
6462;DHT22;3264;42.862;25.098;2023-04-06T13:46:38;10.00;70.30
6462;DHT22;3264;42.862;25.098;2023-04-06T13:49:08;9.90;67.50
6462;DHT22;3264;42.862;25.098;2023-04-06T13:51:36;10.00;67.60
6462;DHT22;3264;42.862;25.098;2023-04-06T13:54:06;10.00;69.20
6462;DHT22;3264;42.862;25.098;2023-04-06T13:56:34;9.90;65.90
6462;DHT22;3264;42.862;25.098;2023-04-06T13:59:04;10.00;71.00
6462;DHT22;3264;42.862;25.098;2023-04-06T14:01:33;9.80;70.50
6462;DHT22;3264;42.862;25.098;2023-04-06T14:04:00;9.60;69.20
6462;DHT22;3264;42.862;25.098;2023-04-06T14:06:30;9.60;71.70
6462;DHT22;3264;42.862;25.098;2023-04-06T14:08:59;9.60;71.70
6462;DHT22;3264;42.862;25.098;2023-04-06T14:11:27;9.50;69.70
6462;DHT22;3264;42.862;25.098;2023-04-06T14:13:56;9.50;70.10
6462;DHT22;3264;42.862;25.098;2023-04-06T14:16:24;9.40;69.50
6462;DHT22;3264;42.862;25.098;2023-04-06T14:18:52;9.20;67.10
6462;DHT22;3264;42.862;25.098;2023-04-06T14:21:21;8.90;68.60
6462;DHT22;3264;42.862;25.098;2023-04-06T14:23:50;9.10;72.00
6462;DHT22;3264;42.862;25.098;2023-04-06T14:26:19;9.30;76.90
6462;DHT22;3264;42.862;25.098;2023-04-06T14:28:47;9.20;69.90
6462;DHT22;3264;42.862;25.098;2023-04-06T14:31:16;9.40;72.00
6462;DHT22;3264;42.862;25.098;2023-04-06T14:33:45;9.40;73.90
6462;DHT22;3264;42.862;25.098;2023-04-06T14:36:15;9.30;71.80
6462;DHT22;3264;42.862;25.098;2023-04-06T14:38:44;9.00;71.70
6462;DHT22;3264;42.862;25.098;2023-04-06T14:41:17;9.10;73.20
6462;DHT22;3264;42.862;25.098;2023-04-06T14:43:46;8.90;71.00
6462;DHT22;3264;42.862;25.098;2023-04-06T14:46:16;8.80;75.50
6462;DHT22;3264;42.862;25.098;2023-04-06T14:48:45;8.70;72.10
6462;DHT22;3264;42.862;25.098;2023-04-06T14:51:13;8.60;71.60
6462;DHT22;3264;42.862;25.098;2023-04-06T14:53:41;8.70;74.00
6462;DHT22;3264;42.862;25.098;2023-04-06T14:56:18;8.70;73.00
6462;DHT22;3264;42.862;25.098;2023-04-06T14:58:48;8.70;73.10
6462;DHT22;3264;42.862;25.098;2023-04-06T15:01:18;8.70;74.90
6462;DHT22;3264;42.862;25.098;2023-04-06T15:03:48;8.60;74.90
6462;DHT22;3264;42.862;25.098;2023-04-06T15:06:18;8.50;70.40
6462;DHT22;3264;42.862;25.098;2023-04-06T15:08:49;8.50;72.30
6462;DHT22;3264;42.862;25.098;2023-04-06T15:11:18;8.40;72.00
6462;DHT22;3264;42.862;25.098;2023-04-06T15:13:47;8.40;72.70
6462;DHT22;3264;42.862;25.098;2023-04-06T15:16:15;8.30;76.20
6462;DHT22;3264;42.862;25.098;2023-04-06T15:18:44;8.30;74.90
6462;DHT22;3264;42.862;25.098;2023-04-06T15:21:12;8.20;75.10
6462;DHT22;3264;42.862;25.098;2023-04-06T15:23:42;8.30;74.60
6462;DHT22;3264;42.862;25.098;2023-04-06T15:26:11;8.30;73.20
6462;DHT22;3264;42.862;25.098;2023-04-06T15:28:38;8.30;75.50
6462;DHT22;3264;42.862;25.098;2023-04-06T15:31:15;8.30;77.30
6462;DHT22;3264;42.862;25.098;2023-04-06T15:33:44;8.30;75.40
6462;DHT22;3264;42.862;25.098;2023-04-06T15:36:22;8.20;75.90
6462;DHT22;3264;42.862;25.098;2023-04-06T15:38:52;8.30;76.60
6462;DHT22;3264;42.862;25.098;2023-04-06T15:41:21;8.30;75.90
6462;DHT22;3264;42.862;25.098;2023-04-06T15:43:49;8.20;76.40
6462;DHT22;3264;42.862;25.098;2023-04-06T15:46:20;8.20;75.60
6462;DHT22;3264;42.862;25.098;2023-04-06T15:48:49;8.10;76.80
6462;DHT22;3264;42.862;25.098;2023-04-06T15:51:17;8.00;76.60
6462;DHT22;3264;42.862;25.098;2023-04-06T15:53:45;8.00;77.70
6462;DHT22;3264;42.862;25.098;2023-04-06T15:56:13;7.90;79.30
6462;DHT22;3264;42.862;25.098;2023-04-06T15:58:42;7.90;78.80
6462;DHT22;3264;42.862;25.098;2023-04-06T16:01:12;7.80;79.70
6462;DHT22;3264;42.862;25.098;2023-04-06T16:03:42;7.80;79.00
6462;DHT22;3264;42.862;25.098;2023-04-06T16:06:12;7.80;77.20
6462;DHT22;3264;42.862;25.098;2023-04-06T16:08:41;7.80;79.10
6462;DHT22;3264;42.862;25.098;2023-04-06T16:11:09;7.80;80.80
6462;DHT22;3264;42.862;25.098;2023-04-06T16:13:37;7.70;81.20
6462;DHT22;3264;42.862;25.098;2023-04-06T16:16:05;7.70;81.00
6462;DHT22;3264;42.862;25.098;2023-04-06T16:18:33;7.70;82.00
6462;DHT22;3264;42.862;25.098;2023-04-06T16:21:02;7.60;78.10
6462;DHT22;3264;42.862;25.098;2023-04-06T16:23:30;7.60;79.30
6462;DHT22;3264;42.862;25.098;2023-04-06T16:25:59;7.60;79.90
6462;DHT22;3264;42.862;25.098;2023-04-06T16:28:27;7.50;82.20
6462;DHT22;3264;42.862;25.098;2023-04-06T16:30:56;7.50;81.60
6462;DHT22;3264;42.862;25.098;2023-04-06T16:33:24;7.50;84.00
6462;DHT22;3264;42.862;25.098;2023-04-06T16:35:53;7.40;82.20
6462;DHT22;3264;42.862;25.098;2023-04-06T16:38:23;7.40;85.50
6462;DHT22;3264;42.862;25.098;2023-04-06T16:40:59;7.30;82.50